createdAt,value
2022-09-10T00:03:22.235Z,100.00
2022-09-10T00:08:25.081Z,100.00
2022-09-10T00:13:27.838Z,100.00
2022-09-10T00:18:31.320Z,100.00
2022-09-10T00:23:35.217Z,100.00
2022-09-10T00:28:38.383Z,100.00
2022-09-10T00:33:42.115Z,100.00
2022-09-10T00:38:45.247Z,100.00
2022-09-10T00:43:53.906Z,100.00
2022-09-10T00:48:59.086Z,100.00
2022-09-10T00:54:03.901Z,100.00
2022-09-10T00:59:10.220Z,100.00
2022-09-10T01:04:13.202Z,100.00
2022-09-10T01:09:16.276Z,100.00
2022-09-10T01:14:32.494Z,100.00
2022-09-10T01:19:53.746Z,100.00
2022-09-10T01:25:05.080Z,100.00
2022-09-10T01:30:09.820Z,100.00
2022-09-10T01:35:18.747Z,100.00
2022-09-10T01:40:30.137Z,100.00
2022-09-10T01:45:47.835Z,100.00
2022-09-10T01:51:34.519Z,100.00
2022-09-10T01:56:53.505Z,100.00
2022-09-10T02:02:04.147Z,100.00
2022-09-10T02:07:07.695Z,100.00
2022-09-10T02:12:19.762Z,100.00
2022-09-10T02:17:28.383Z,100.00
2022-09-10T02:22:33.941Z,100.00
2022-09-10T02:27:38.374Z,100.00
2022-09-10T02:32:41.161Z,100.00
2022-09-10T02:37:43.949Z,100.00
2022-09-10T02:42:47.196Z,100.00
2022-09-10T02:47:50.163Z,100.00
2022-09-10T02:52:53.986Z,100.00
2022-09-10T02:57:56.795Z,100.00
2022-09-10T03:03:02.954Z,100.00
2022-09-10T03:08:06.787Z,100.00
2022-09-10T03:13:09.567Z,100.00
2022-09-10T03:18:13.013Z,100.00
2022-09-10T03:23:16.377Z,100.00
2022-09-10T03:28:20.252Z,100.00
2022-09-10T03:33:23.050Z,100.00
2022-09-10T03:38:27.150Z,100.00
2022-09-10T03:43:30.638Z,100.00
2022-09-10T03:48:33.403Z,100.00
2022-09-10T03:53:36.546Z,100.00
2022-09-10T03:58:39.284Z,100.00
2022-09-10T04:03:42.308Z,100.00
2022-09-10T04:08:49.759Z,100.00
2022-09-10T04:13:53.014Z,100.00
2022-09-10T04:18:55.789Z,100.00
2022-09-10T04:24:00.865Z,100.00
2022-09-10T04:29:04.021Z,100.00
2022-09-10T04:34:07.830Z,100.00
2022-09-10T04:39:10.701Z,100.00
2022-09-10T04:44:13.841Z,100.00
2022-09-10T04:49:16.468Z,100.00
2022-09-10T04:54:19.861Z,100.00
2022-09-10T04:59:22.688Z,100.00
2022-09-10T05:04:25.623Z,100.00
2022-09-10T05:09:34.307Z,100.00
2022-09-10T05:14:38.136Z,100.00
2022-09-10T05:19:40.987Z,100.00
2022-09-10T05:24:44.318Z,100.00
2022-09-10T05:29:47.086Z,100.00
2022-09-10T05:34:49.931Z,100.00
2022-09-10T05:39:52.754Z,100.00
2022-09-10T05:44:55.594Z,100.00
2022-09-10T05:49:58.374Z,100.00
2022-09-10T05:55:01.194Z,100.00
2022-09-10T06:00:08.077Z,100.00
2022-09-10T06:05:10.909Z,100.00
2022-09-10T06:10:14.586Z,100.00
2022-09-10T06:15:17.917Z,100.00
2022-09-10T06:20:20.758Z,100.00
2022-09-10T06:25:24.232Z,100.00
2022-09-10T06:30:27.096Z,100.00
2022-09-10T06:35:29.965Z,100.00
2022-09-10T06:40:33.236Z,100.00
2022-09-10T06:45:40.146Z,100.00
2022-09-10T06:50:51.239Z,100.00
2022-09-10T06:55:54.130Z,100.00
2022-09-10T07:00:57.005Z,100.00
2022-09-10T07:06:04.407Z,100.00
2022-09-10T07:11:13.009Z,100.00
2022-09-10T07:16:25.921Z,100.00
2022-09-10T07:21:29.194Z,100.00
2022-09-10T07:26:32.129Z,100.00
2022-09-10T07:31:35.562Z,100.00
2022-09-10T07:36:38.285Z,100.00
2022-09-10T07:41:41.033Z,100.00
2022-09-10T07:46:43.954Z,100.00
2022-09-10T07:51:47.142Z,100.00
2022-09-10T07:56:50.244Z,100.00
2022-09-10T08:01:52.981Z,100.00
2022-09-10T08:06:56.900Z,100.00
2022-09-10T08:11:59.990Z,100.00
2022-09-10T08:17:02.838Z,100.00
2022-09-10T08:22:09.143Z,100.00
2022-09-10T08:27:16.544Z,99.93
2022-09-10T08:32:19.502Z,100.00
2022-09-10T08:37:22.264Z,99.94
2022-09-10T08:42:33.722Z,99.72
2022-09-10T08:47:44.735Z,99.13
2022-09-10T08:52:53.511Z,98.79
2022-09-10T08:58:01.078Z,98.41
2022-09-10T09:03:45.412Z,98.52
2022-09-10T09:08:50.275Z,96.31
2022-09-10T09:14:21.635Z,95.38
2022-09-10T09:19:53.444Z,94.42
2022-09-10T09:25:05.275Z,94.01
2022-09-10T09:30:37.297Z,94.26
2022-09-10T09:35:53.229Z,93.99
2022-09-10T09:40:59.239Z,94.00
2022-09-10T09:46:03.043Z,94.35
2022-09-10T09:51:11.694Z,95.54
2022-09-10T09:56:25.096Z,96.90
2022-09-10T10:01:29.088Z,97.18
2022-09-10T10:06:47.352Z,96.86
2022-09-10T10:11:56.074Z,96.79
2022-09-10T10:17:00.979Z,97.60
2022-09-10T10:22:19.460Z,97.72
2022-09-10T10:27:30.075Z,98.54
2022-09-10T10:32:44.829Z,99.00
2022-09-10T10:38:01.060Z,99.44
2022-09-10T10:43:54.733Z,99.61
2022-09-10T10:49:25.945Z,99.80
2022-09-10T10:54:47.777Z,100.00
2022-09-10T11:00:04.582Z,100.00
2022-09-10T11:05:18.496Z,100.00
2022-09-10T11:10:42.784Z,100.00
2022-09-10T11:15:59.625Z,100.00
2022-09-10T11:21:30.079Z,100.00
2022-09-10T11:26:58.161Z,100.00
2022-09-10T11:32:27.169Z,99.95
2022-09-10T11:37:43.462Z,99.67
2022-09-10T11:42:52.408Z,99.91
2022-09-10T11:48:14.864Z,99.50
2022-09-10T11:53:22.072Z,99.55
2022-09-10T11:58:34.971Z,99.93
2022-09-10T12:03:49.657Z,99.38
2022-09-10T12:09:01.738Z,99.53
2022-09-10T12:14:13.650Z,99.78
2022-09-10T12:19:38.788Z,99.45
2022-09-10T12:24:55.700Z,99.65
2022-09-10T12:30:36.347Z,99.32
2022-09-10T12:35:50.958Z,99.68
2022-09-10T12:40:55.823Z,99.62
2022-09-10T12:46:12.193Z,99.41
2022-09-10T12:51:18.122Z,99.01
2022-09-10T12:56:29.981Z,98.56
2022-09-10T13:01:46.378Z,98.64
2022-09-10T13:06:49.661Z,97.49
2022-09-10T13:11:56.965Z,97.98
2022-09-10T13:16:59.867Z,97.94
2022-09-10T13:22:03.701Z,97.83
2022-09-10T13:27:36.511Z,98.62
2022-09-10T13:32:44.437Z,98.74
2022-09-10T13:38:08.898Z,98.83
2022-09-10T13:43:23.516Z,99.03
2022-09-10T13:48:30.825Z,99.15
2022-09-10T13:53:35.197Z,99.40
2022-09-10T13:58:42.514Z,99.81
2022-09-10T14:03:45.548Z,99.87
2022-09-10T14:09:03.231Z,100.00
2022-09-10T14:14:11.352Z,100.00
2022-09-10T14:19:30.592Z,100.00
2022-09-10T14:24:36.116Z,100.00
2022-09-10T14:29:39.398Z,100.00
2022-09-10T14:34:42.263Z,100.00
2022-09-10T14:39:45.055Z,100.00
2022-09-10T14:44:47.945Z,100.00
2022-09-10T14:49:52.344Z,100.00
2022-09-10T14:54:56.272Z,100.00
2022-09-10T15:00:00.057Z,100.00
2022-09-10T15:05:02.962Z,100.00
2022-09-10T15:10:05.984Z,100.00
2022-09-10T15:15:17.589Z,100.00
2022-09-10T15:20:27.135Z,100.00
2022-09-10T15:25:38.731Z,100.00
2022-09-10T15:30:41.754Z,100.00
2022-09-10T15:35:44.471Z,100.00
2022-09-10T15:40:49.823Z,100.00
2022-09-10T15:45:52.667Z,100.00
2022-09-10T15:50:56.475Z,100.00
2022-09-10T15:56:04.976Z,100.00
2022-09-10T16:01:12.563Z,100.00
2022-09-10T16:06:15.930Z,100.00
2022-09-10T16:11:20.492Z,100.00
2022-09-10T16:16:26.836Z,100.00
2022-09-10T16:21:32.288Z,100.00
2022-09-10T16:26:38.403Z,100.00
2022-09-10T16:31:43.043Z,100.00
2022-09-10T16:36:48.967Z,100.00
2022-09-10T16:41:52.336Z,100.00
2022-09-10T16:46:57.718Z,100.00
2022-09-10T16:52:00.560Z,100.00
2022-09-10T16:57:03.473Z,100.00
2022-09-10T17:02:07.637Z,100.00
2022-09-10T17:07:10.579Z,100.00
2022-09-10T17:12:13.223Z,100.00
2022-09-10T17:17:16.009Z,100.00
2022-09-10T17:22:18.860Z,100.00
2022-09-10T17:27:25.390Z,100.00
2022-09-10T17:32:28.766Z,100.00
2022-09-10T17:37:32.479Z,100.00
2022-09-10T17:42:35.284Z,100.00
2022-09-10T17:47:39.308Z,100.00
2022-09-10T17:52:45.998Z,100.00
2022-09-10T17:57:49.318Z,100.00
2022-09-10T18:02:53.370Z,100.00
2022-09-10T18:07:56.607Z,100.00
2022-09-10T18:13:00.536Z,100.00
2022-09-10T18:18:03.446Z,100.00
2022-09-10T18:23:07.116Z,100.00
2022-09-10T18:28:09.928Z,100.00
2022-09-10T18:33:14.013Z,100.00
2022-09-10T18:38:16.811Z,100.00
2022-09-10T18:43:20.252Z,100.00
2022-09-10T18:48:23.042Z,100.00
2022-09-10T18:53:25.829Z,100.00
2022-09-10T18:58:28.626Z,100.00
2022-09-10T19:03:35.562Z,100.00
2022-09-10T19:08:39.874Z,100.00
2022-09-10T19:13:42.614Z,100.00
2022-09-10T19:18:56.352Z,100.00
2022-09-10T19:24:03.864Z,100.00
2022-09-10T19:29:07.143Z,100.00
2022-09-10T19:34:12.147Z,100.00
2022-09-10T19:39:17.091Z,100.00
2022-09-10T19:44:20.278Z,100.00
2022-09-10T19:49:23.001Z,100.00
2022-09-10T19:54:28.336Z,100.00
2022-09-10T19:59:31.123Z,100.00
2022-09-10T20:04:38.169Z,100.00
2022-09-10T20:09:41.026Z,100.00
2022-09-10T20:14:43.816Z,100.00
2022-09-10T20:19:46.590Z,100.00
2022-09-10T20:24:49.324Z,100.00
2022-09-10T20:29:52.169Z,100.00
2022-09-10T20:34:56.588Z,100.00
2022-09-10T20:39:59.387Z,100.00
2022-09-10T20:45:02.708Z,100.00
2022-09-10T20:50:06.620Z,100.00
2022-09-10T20:55:09.608Z,100.00
2022-09-10T21:00:13.224Z,100.00
2022-09-10T21:05:16.233Z,100.00
2022-09-10T21:10:19.193Z,100.00
2022-09-10T21:15:22.016Z,100.00
2022-09-10T21:20:24.785Z,100.00
2022-09-10T21:25:28.195Z,100.00
2022-09-10T21:30:31.244Z,100.00
2022-09-10T21:35:34.407Z,100.00
2022-09-10T21:40:37.241Z,100.00
2022-09-10T21:45:40.031Z,100.00
2022-09-10T21:50:42.781Z,100.00
2022-09-10T21:55:45.628Z,100.00
2022-09-10T22:00:48.496Z,100.00
2022-09-10T22:05:51.375Z,100.00
2022-09-10T22:10:54.289Z,100.00
2022-09-10T22:15:58.471Z,100.00
2022-09-10T22:21:02.255Z,100.00
2022-09-10T22:26:07.256Z,100.00
2022-09-10T22:31:13.348Z,100.00
2022-09-10T22:36:28.971Z,100.00
2022-09-10T22:41:34.169Z,100.00
2022-09-10T22:46:38.112Z,100.00
2022-09-10T22:51:41.221Z,100.00
2022-09-10T22:56:44.833Z,100.00
2022-09-10T23:01:47.873Z,100.00
2022-09-10T23:06:50.837Z,100.00
2022-09-10T23:11:54.344Z,100.00
2022-09-10T23:16:57.093Z,100.00
2022-09-10T23:21:59.873Z,100.00
2022-09-10T23:27:04.021Z,100.00
2022-09-10T23:32:07.002Z,100.00
2022-09-10T23:37:10.310Z,100.00
2022-09-10T23:42:13.101Z,100.00
2022-09-10T23:47:15.893Z,100.00
2022-09-10T23:52:19.350Z,100.00
2022-09-10T23:57:22.176Z,100.00
